Covered Bridge, Utah
Current Conditions -  °F | °C
As of 10:59 AM on Friday 28 Nov 2014 (Local Time) from KPVU Reporting Station
Overcast Overcast  
Wind Chill: 48°   Ceiling: 16000
Heat Index: 48°   Visibility: 15mi
Dew Point: 28°   Wind: 0mph
Humidity: 46%   Direction: NA
Pressure: 30.06"   Gusts: NA
Location:  40.1192°N, 111.689°W
Report Text: KPVU 281759Z 00000KT 15SM OVC160 09/M02 A3006
Loading
Personal Weather Stations






























Interactive Weather Map New forecast layout! Learn more

10-Day Weather Forecast

Advertisements
Track Severe Weather on mobile